createdAt,value
2022-08-05T00:01:28.478Z,100.00
2022-08-05T00:06:29.344Z,100.00
2022-08-05T00:11:34.835Z,100.00
2022-08-05T00:16:52.448Z,100.00
2022-08-05T00:21:50.185Z,100.00
2022-08-05T00:26:50.984Z,100.00
2022-08-05T00:32:11.091Z,100.00
2022-08-05T00:37:12.927Z,100.00
2022-08-05T00:42:32.054Z,100.00
2022-08-05T00:47:53.059Z,100.00
2022-08-05T00:52:46.821Z,100.00
2022-08-05T00:57:58.146Z,100.00
2022-08-05T01:02:56.922Z,100.00
2022-08-05T01:08:31.622Z,100.00
2022-08-05T01:13:27.090Z,100.00
2022-08-05T01:18:29.681Z,100.00
2022-08-05T01:23:54.556Z,100.00
2022-08-05T01:29:04.327Z,100.00
2022-08-05T01:34:12.305Z,100.00
2022-08-05T01:39:13.233Z,100.00
2022-08-05T01:44:11.418Z,100.00
2022-08-05T01:49:23.268Z,100.00
2022-08-05T01:54:25.553Z,100.00
2022-08-05T01:59:26.552Z,100.00
2022-08-05T02:04:26.475Z,100.00
2022-08-05T02:09:22.891Z,100.00
2022-08-05T02:14:39.494Z,100.00
2022-08-05T02:19:49.032Z,100.00
2022-08-05T02:24:51.334Z,100.00
2022-08-05T02:29:59.542Z,100.00
2022-08-05T02:35:02.020Z,100.00
2022-08-05T02:40:10.585Z,100.00
2022-08-05T02:45:09.946Z,100.00
2022-08-05T02:50:08.719Z,100.00
2022-08-05T02:55:10.829Z,100.00
2022-08-05T03:00:12.439Z,100.00
2022-08-05T03:05:11.684Z,100.00
2022-08-05T03:10:09.439Z,100.00
2022-08-05T03:15:09.162Z,100.00
2022-08-05T03:20:06.695Z,100.00
2022-08-05T03:25:32.401Z,100.00
2022-08-05T03:30:20.818Z,100.00
2022-08-05T03:35:28.550Z,100.00
2022-08-05T03:40:32.012Z,100.00
2022-08-05T03:45:29.688Z,100.00
2022-08-05T03:52:37.667Z,100.00
2022-08-05T03:56:42.003Z,100.00
2022-08-05T04:01:42.363Z,100.00
2022-08-05T04:06:48.015Z,100.00
2022-08-05T04:11:50.725Z,100.00
2022-08-05T04:16:49.097Z,100.00
2022-08-05T04:22:08.236Z,100.00
2022-08-05T04:27:01.905Z,100.00
2022-08-05T04:31:58.918Z,100.00
2022-08-05T04:36:57.070Z,100.00
2022-08-05T04:41:53.401Z,100.00
2022-08-05T04:46:51.746Z,100.00
2022-08-05T04:51:49.291Z,100.00
2022-08-05T04:56:59.720Z,100.00
2022-08-05T05:02:07.693Z,100.00
2022-08-05T05:07:17.283Z,100.00
2022-08-05T05:12:13.690Z,100.00
2022-08-05T05:17:11.537Z,100.00
2022-08-05T05:22:24.258Z,100.00
2022-08-05T05:27:22.521Z,100.00
2022-08-05T05:32:19.338Z,100.00
2022-08-05T05:37:17.660Z,100.00
2022-08-05T05:42:14.293Z,100.00
2022-08-05T05:47:13.244Z,100.00
2022-08-05T05:52:28.647Z,100.00
2022-08-05T05:57:42.750Z,100.00
2022-08-05T06:02:46.189Z,100.00
2022-08-05T06:07:43.203Z,100.00
2022-08-05T06:12:57.638Z,100.00
2022-08-05T06:17:54.432Z,100.00
2022-08-05T06:22:51.278Z,100.00
2022-08-05T06:28:12.821Z,100.00
2022-08-05T06:33:04.024Z,100.00
2022-08-05T06:38:04.305Z,100.00
2022-08-05T06:43:07.683Z,100.00
2022-08-05T06:48:52.907Z,100.00
2022-08-05T06:53:40.404Z,100.00
2022-08-05T06:58:36.942Z,100.00
2022-08-05T07:03:34.140Z,100.00
2022-08-05T07:08:30.730Z,100.00
2022-08-05T07:13:57.628Z,100.00
2022-08-05T07:18:54.993Z,100.00
2022-08-05T07:23:52.364Z,100.00
2022-08-05T07:28:50.812Z,100.00
2022-08-05T07:33:47.177Z,100.00
2022-08-05T07:38:44.826Z,100.00
2022-08-05T07:43:41.190Z,100.00
2022-08-05T07:49:01.587Z,100.00
2022-08-05T07:53:55.778Z,100.00
2022-08-05T07:58:57.488Z,100.00
2022-08-05T08:03:55.719Z,100.00
2022-08-05T08:08:53.295Z,100.00
2022-08-05T08:14:00.978Z,100.00
2022-08-05T08:18:57.683Z,100.00
2022-08-05T08:24:02.216Z,100.00
2022-08-05T08:29:22.238Z,100.00
2022-08-05T08:34:18.521Z,100.00
2022-08-05T08:39:18.006Z,100.00
2022-08-05T08:45:23.124Z,100.00
2022-08-05T08:50:07.601Z,100.00
2022-08-05T08:54:56.606Z,100.00
2022-08-05T08:59:56.113Z,100.00
2022-08-05T09:05:16.359Z,100.00
2022-08-05T09:10:09.341Z,100.00
2022-08-05T09:15:06.821Z,100.00
2022-08-05T09:20:05.706Z,100.00
2022-08-05T09:25:14.048Z,100.00
2022-08-05T09:30:23.566Z,100.00
2022-08-05T09:35:26.632Z,100.00
2022-08-05T09:40:36.326Z,100.00
2022-08-05T09:46:07.831Z,100.00
2022-08-05T09:50:58.828Z,100.00
2022-08-05T09:56:04.536Z,100.00
2022-08-05T10:01:14.879Z,100.00
2022-08-05T10:06:14.652Z,100.00
2022-08-05T10:11:16.816Z,100.00
2022-08-05T10:16:37.852Z,100.00
2022-08-05T10:21:40.250Z,100.00
2022-08-05T10:26:49.002Z,100.00
2022-08-05T10:33:01.486Z,100.00
2022-08-05T10:37:04.378Z,100.00
2022-08-05T10:42:22.760Z,100.00
2022-08-05T10:47:33.004Z,100.00
2022-08-05T10:52:59.886Z,100.00
2022-08-05T10:58:11.359Z,100.00
2022-08-05T11:03:25.563Z,100.00
2022-08-05T11:08:38.134Z,100.00
2022-08-05T11:13:55.096Z,100.00
2022-08-05T11:20:15.713Z,100.00
2022-08-05T11:24:50.678Z,100.00
2022-08-05T11:30:00.711Z,100.00
2022-08-05T11:34:57.660Z,100.00
2022-08-05T11:40:00.711Z,100.00
2022-08-05T11:45:05.873Z,100.00
2022-08-05T11:50:20.020Z,100.00
2022-08-05T11:55:16.392Z,100.00
2022-08-05T12:00:38.351Z,100.00
2022-08-05T12:05:39.625Z,100.00
2022-08-05T12:10:46.119Z,100.00
2022-08-05T12:15:50.163Z,100.00
2022-08-05T12:20:46.892Z,100.00
2022-08-05T12:25:53.471Z,100.00
2022-08-05T12:30:49.896Z,100.00
2022-08-05T12:35:46.383Z,100.00
2022-08-05T12:40:44.565Z,100.00
2022-08-05T12:45:54.122Z,100.00
2022-08-05T12:52:10.672Z,100.00
2022-08-05T12:56:35.055Z,100.00
2022-08-05T13:02:01.886Z,100.00
2022-08-05T13:06:51.702Z,100.00
2022-08-05T13:12:02.683Z,100.00
2022-08-05T13:16:59.933Z,100.00
2022-08-05T13:21:56.725Z,100.00
2022-08-05T13:26:53.279Z,100.00
2022-08-05T13:32:03.979Z,100.00
2022-08-05T13:37:01.517Z,100.00
2022-08-05T13:41:57.876Z,100.00
2022-08-05T13:47:04.687Z,100.00
2022-08-05T13:52:19.532Z,100.00
2022-08-05T13:57:26.076Z,100.00
2022-08-05T14:02:42.169Z,100.00
2022-08-05T14:08:01.041Z,100.00
2022-08-05T14:12:57.557Z,100.00
2022-08-05T14:17:57.749Z,100.00
2022-08-05T14:22:57.914Z,100.00
2022-08-05T14:27:54.500Z,100.00
2022-08-05T14:32:51.263Z,100.00
2022-08-05T14:37:52.104Z,100.00
2022-08-05T14:42:50.432Z,100.00
2022-08-05T14:48:02.496Z,100.00
2022-08-05T14:53:01.849Z,100.00
2022-08-05T14:57:58.552Z,100.00
2022-08-05T15:02:55.220Z,100.00
2022-08-05T15:08:10.880Z,100.00
2022-08-05T15:13:08.349Z,100.00
2022-08-05T15:18:06.727Z,100.00
2022-08-05T15:23:11.107Z,100.00
2022-08-05T15:28:09.041Z,100.00
2022-08-05T15:33:11.670Z,100.00
2022-08-05T15:38:34.708Z,100.00
2022-08-05T15:43:24.669Z,100.00
2022-08-05T15:48:21.034Z,100.00
2022-08-05T15:53:17.516Z,100.00
2022-08-05T15:58:17.633Z,100.00
2022-08-05T16:03:13.973Z,100.00
2022-08-05T16:08:11.370Z,100.00
2022-08-05T16:13:12.531Z,86.94
2022-08-05T16:18:15.728Z,69.72
2022-08-05T16:23:14.012Z,71.59
2022-08-05T16:28:11.714Z,65.75
2022-08-05T16:33:08.113Z,65.34
2022-08-05T16:38:18.860Z,58.49
2022-08-05T16:43:23.480Z,55.81
2022-08-05T16:48:25.591Z,53.22
2022-08-05T16:53:32.257Z,52.66
2022-08-05T16:58:46.031Z,50.75
2022-08-05T17:03:42.438Z,48.77
2022-08-05T17:08:53.927Z,48.21
2022-08-05T17:13:51.157Z,48.36
2022-08-05T17:18:56.786Z,49.19
2022-08-05T17:24:05.809Z,55.09
2022-08-05T17:29:10.052Z,51.14
2022-08-05T17:34:06.675Z,46.77
2022-08-05T17:39:05.198Z,45.53
2022-08-05T17:44:32.324Z,46.90
2022-08-05T17:49:28.947Z,46.05
2022-08-05T17:54:45.272Z,47.72
2022-08-05T17:59:41.688Z,47.57
2022-08-05T18:04:51.385Z,47.00
2022-08-05T18:10:02.093Z,46.23
2022-08-05T18:15:06.965Z,48.22
2022-08-05T18:20:06.425Z,45.98
2022-08-05T18:25:11.645Z,45.34
2022-08-05T18:30:13.649Z,44.10
2022-08-05T18:35:11.542Z,46.67
2022-08-05T18:41:53.154Z,51.57
2022-08-05T18:45:40.896Z,59.73
2022-08-05T18:50:56.981Z,76.46
2022-08-05T18:55:58.203Z,91.64
2022-08-05T19:00:56.344Z,93.95
2022-08-05T19:06:12.843Z,100.00
2022-08-05T19:11:09.599Z,100.00
2022-08-05T19:16:22.234Z,100.00
2022-08-05T19:21:26.156Z,100.00
2022-08-05T19:26:25.783Z,100.00
2022-08-05T19:31:22.962Z,100.00
2022-08-05T19:36:19.531Z,100.00
2022-08-05T19:41:16.232Z,100.00
2022-08-05T19:46:29.460Z,100.00
2022-08-05T19:51:56.602Z,100.00
2022-08-05T19:56:43.996Z,100.00
2022-08-05T20:01:40.435Z,100.00
2022-08-05T20:06:45.959Z,100.00
2022-08-05T20:11:48.217Z,100.00
2022-08-05T20:16:45.092Z,100.00
2022-08-05T20:21:41.471Z,100.00
2022-08-05T20:26:39.876Z,100.00
2022-08-05T20:31:52.148Z,100.00
2022-08-05T20:36:48.786Z,100.00
2022-08-05T20:41:49.162Z,100.00
2022-08-05T20:46:45.524Z,100.00
2022-08-05T20:51:42.560Z,100.00
2022-08-05T20:56:42.151Z,100.00
2022-08-05T21:01:39.207Z,100.00
2022-08-05T21:06:36.439Z,100.00
2022-08-05T21:12:10.553Z,100.00
2022-08-05T21:16:49.276Z,100.00
2022-08-05T21:21:50.655Z,100.00
2022-08-05T21:26:58.419Z,100.00
2022-08-05T21:31:55.499Z,100.00
2022-08-05T21:36:52.148Z,100.00
2022-08-05T21:41:52.619Z,100.00
2022-08-05T21:46:49.369Z,100.00
2022-08-05T21:52:27.113Z,100.00
2022-08-05T21:57:29.587Z,100.00
2022-08-05T22:02:21.098Z,100.00
2022-08-05T22:07:17.484Z,100.00
2022-08-05T22:12:34.469Z,100.00
2022-08-05T22:17:40.592Z,100.00
2022-08-05T22:23:17.072Z,100.00
2022-08-05T22:28:18.283Z,100.00
2022-08-05T22:33:15.657Z,100.00
2022-08-05T22:38:12.676Z,100.00
2022-08-05T22:43:09.136Z,100.00
2022-08-05T22:48:05.719Z,100.00
2022-08-05T22:53:04.244Z,100.00
2022-08-05T22:58:06.287Z,100.00
2022-08-05T23:03:08.056Z,100.00
2022-08-05T23:08:09.796Z,100.00
2022-08-05T23:13:07.833Z,100.00
2022-08-05T23:18:06.151Z,100.00
2022-08-05T23:23:09.024Z,100.00
2022-08-05T23:28:07.565Z,100.00
2022-08-05T23:33:04.131Z,100.00
2022-08-05T23:38:00.506Z,100.00
2022-08-05T23:42:56.829Z,100.00
2022-08-05T23:47:53.901Z,100.00
2022-08-05T23:52:55.912Z,100.00
2022-08-05T23:57:52.783Z,100.00
